Time;durP1;ratioP1;P1;durP2;ratioP2;P2;SDS_P1;SDS_P2;PMS_P1;PMS_P2;Temp;Humidity;BMP_temperature;BMP_pressure;BME280_temperature;BME280_humidity;BME280_pressure;Samples;Min_cycle;Max_cycle;Signal;HPM_P1;HPM_P2
2024/01/08 00:01:33;;;;;;;20.20;14.55;;;;;;;10.15;100.00;98448.19;5069972;28;20025;-77
2024/01/08 00:03:58;;;;;;;21.52;13.85;;;;;;;10.03;100.00;98454.53;5069764;28;20498;-79
2024/01/08 00:06:24;;;;;;;24.25;13.30;;;;;;;10.03;100.00;98454.53;5070093;28;20032;-78
2024/01/08 00:08:50;;;;;;;23.80;14.52;;;;;;;10.03;100.00;98449.19;5069848;28;20032;-78
2024/01/08 00:11:15;;;;;;;25.35;15.32;;;;;;;10.10;100.00;98440.97;5070295;28;20028;-77
2024/01/08 00:13:41;;;;;;;24.02;13.70;;;;;;;10.25;100.00;98469.59;5070374;28;20049;-78
2024/01/08 00:16:06;;;;;;;21.33;14.35;;;;;;;10.13;100.00;98476.97;5032727;28;20692;-78
2024/01/08 00:18:32;;;;;;;24.08;15.20;;;;;;;10.36;100.00;98484.63;5070112;28;20036;-77
2024/01/08 00:20:59;;;;;;;29.20;16.92;;;;;;;10.22;100.00;98465.59;5070119;28;20025;-78
2024/01/08 00:23:24;;;;;;;24.15;14.73;;;;;;;10.19;100.00;98483.94;5070287;28;20035;-78
2024/01/08 00:25:50;;;;;;;24.17;15.13;;;;;;;9.83;100.00;98457.03;5070108;28;20029;-78
2024/01/08 00:28:15;;;;;;;25.23;15.23;;;;;;;9.93;100.00;98489.06;5069645;28;20029;-78
2024/01/08 00:30:41;;;;;;;30.00;15.52;;;;;;;9.97;100.00;98489.34;5051761;28;20028;-78
2024/01/08 00:33:06;;;;;;;23.98;14.95;;;;;;;10.24;100.00;98499.97;5052032;28;20036;-78
2024/01/08 00:35:31;;;;;;;26.17;15.65;;;;;;;10.38;100.00;98493.16;5051173;28;20112;-77
2024/01/08 00:37:57;;;;;;;25.77;15.82;;;;;;;10.36;100.00;98499.78;5069439;28;20127;-79
2024/01/08 00:40:22;;;;;;;25.42;15.00;;;;;;;10.03;100.00;98457.19;5069926;28;20032;-78
2024/01/08 00:42:48;;;;;;;28.85;15.85;;;;;;;10.34;100.00;98489.41;5069455;28;20039;-78
2024/01/08 00:45:13;;;;;;;23.65;15.10;;;;;;;10.63;100.00;98502.41;5069842;28;20020;-78
2024/01/08 00:47:40;;;;;;;27.60;16.08;;;;;;;10.44;100.00;98494.81;5069350;28;20032;-78
2024/01/08 00:50:06;;;;;;;29.75;15.55;;;;;;;10.28;100.00;98495.72;5069570;28;20043;-77
2024/01/08 00:52:32;;;;;;;30.45;15.95;;;;;;;10.34;100.00;98493.91;5069704;28;20037;-78
2024/01/08 00:55:04;;;;;;;28.10;15.18;;;;;;;10.34;100.00;98505.41;5069502;28;20021;-78
2024/01/08 00:57:30;;;;;;;31.15;15.48;;;;;;;10.21;100.00;98511.13;5051562;28;20120;-77
2024/01/08 00:59:56;;;;;;;27.17;15.73;;;;;;;10.25;100.00;98501.56;5069076;28;20449;-77
2024/01/08 01:02:21;;;;;;;25.67;14.50;;;;;;;10.36;100.00;98505.94;5051555;28;20032;-77
2024/01/08 01:04:46;;;;;;;30.48;15.65;;;;;;;10.20;100.00;98485.56;5068852;28;20107;-78
2024/01/08 01:07:12;;;;;;;26.08;14.85;;;;;;;10.27;100.00;98499.44;5069138;28;20020;-78
2024/01/08 01:09:37;;;;;;;23.90;14.25;;;;;;;9.83;100.00;98479.13;5051147;28;20536;-78
2024/01/08 01:12:03;;;;;;;27.75;14.88;;;;;;;10.10;100.00;98504.91;5071298;28;20024;-78
2024/01/08 01:14:28;;;;;;;24.40;14.45;;;;;;;10.34;100.00;98525.91;5055618;28;20040;-78
2024/01/08 01:16:54;;;;;;;24.38;14.02;;;;;;;10.08;100.00;98516.88;5068694;28;20043;-78
2024/01/08 01:19:19;;;;;;;26.60;14.95;;;;;;;10.17;100.00;98500.16;5069055;28;20119;-78
2024/01/08 01:21:44;;;;;;;25.83;14.40;;;;;;;10.22;100.00;98491.44;5050861;28;20051;-79
2024/01/08 01:24:10;;;;;;;26.33;14.65;;;;;;;10.21;100.00;98516.44;5050754;28;20119;-79
2024/01/08 01:26:35;;;;;;;23.10;14.95;;;;;;;9.82;100.00;98503.31;5068393;28;20421;-79
2024/01/08 01:29:00;;;;;;;29.40;16.75;;;;;;;9.98;100.00;98520.25;5068468;28;20029;-78
2024/01/08 01:31:26;;;;;;;24.42;15.00;;;;;;;9.96;100.00;98523.16;5068490;28;20036;-78
2024/01/08 01:33:51;;;;;;;23.77;14.43;;;;;;;9.82;100.00;98503.31;5068602;28;20028;-78
2024/01/08 01:36:17;;;;;;;25.17;13.95;;;;;;;10.06;100.00;98520.59;5068549;28;20032;-77
2024/01/08 01:38:42;;;;;;;20.40;13.07;;;;;;;9.77;100.00;98512.06;5068738;28;20040;-79
2024/01/08 01:41:08;;;;;;;19.05;13.13;;;;;;;9.81;100.00;98504.41;5068399;28;20128;-78
2024/01/08 01:43:33;;;;;;;27.65;13.93;;;;;;;10.29;100.00;98531.97;5067919;28;20517;-78
2024/01/08 01:46:07;;;;;;;23.90;13.40;;;;;;;10.44;100.00;98534.78;5068277;28;20104;-80
2024/01/08 01:48:33;;;;;;;24.25;13.18;;;;;;;10.28;100.00;98522.38;5068169;28;20039;-78
2024/01/08 01:51:00;;;;;;;24.02;13.70;;;;;;;10.21;100.00;98500.47;5050217;28;20123;-79
2024/01/08 01:53:26;;;;;;;21.50;12.30;;;;;;;10.47;100.00;98519.34;5050061;28;20024;-79
2024/01/08 01:55:53;;;;;;;19.85;13.20;;;;;;;10.51;100.00;98541.75;5068137;28;20020;-79
2024/01/08 01:58:20;;;;;;;23.10;12.15;;;;;;;10.31;100.00;98521.09;5050110;28;20048;-79
2024/01/08 02:00:46;;;;;;;24.73;12.52;;;;;;;10.22;100.00;98526.84;5068187;28;20039;-78
2024/01/08 02:03:12;;;;;;;22.85;12.13;;;;;;;9.90;100.00;98486.88;5068374;28;20517;-79
2024/01/08 02:05:38;;;;;;;24.92;13.70;;;;;;;10.06;100.00;98499.28;5067783;28;20070;-78
2024/01/08 02:08:04;;;;;;;23.00;13.40;;;;;;;9.96;100.00;98509.84;5068034;28;20040;-80
2024/01/08 02:10:29;;;;;;;20.75;11.55;;;;;;;9.90;100.00;98523.38;5067986;28;20028;-79
2024/01/08 02:12:55;;;;;;;21.45;13.10;;;;;;;9.80;100.00;98532.84;5067694;28;20052;-79
2024/01/08 02:15:20;;;;;;;28.63;12.35;;;;;;;9.59;100.00;98501.78;5067865;28;20043;-78
2024/01/08 02:17:46;;;;;;;20.80;10.82;;;;;;;9.69;100.00;98520.50;5049909;28;20086;-79
2024/01/08 02:20:11;;;;;;;23.10;11.15;;;;;;;9.89;100.00;98511.94;5068394;28;21480;-80
2024/01/08 02:22:40;;;;;;;21.15;10.73;;;;;;;10.26;100.00;98551.13;5067894;28;20029;-79
2024/01/08 02:25:07;;;;;;;19.92;11.40;;;;;;;10.28;100.00;98541.03;5067616;28;20726;-79
2024/01/08 02:27:33;;;;;;;20.85;11.10;;;;;;;10.36;100.00;98532.59;5067756;28;20032;-77
2024/01/08 02:29:58;;;;;;;24.25;11.07;;;;;;;10.35;100.00;98543.50;5049725;28;20033;-79
2024/01/08 02:32:23;;;;;;;20.73;11.18;;;;;;;10.33;100.00;98538.41;5067553;28;20805;-78
2024/01/08 02:34:49;;;;;;;24.00;12.32;;;;;;;10.24;100.00;98537.25;5067658;28;20159;-78
2024/01/08 02:37:14;;;;;;;20.80;11.45;;;;;;;10.26;100.00;98543.16;5049234;28;20517;-77
2024/01/08 02:39:39;;;;;;;20.50;12.85;;;;;;;10.31;100.00;98537.06;5067639;28;20111;-78
2024/01/08 02:42:05;;;;;;;22.00;12.18;;;;;;;10.19;100.00;98535.34;5067713;28;20075;-78
2024/01/08 02:44:30;;;;;;;18.98;11.18;;;;;;;10.20;100.00;98514.84;5067590;28;20047;-79
2024/01/08 02:46:56;;;;;;;18.63;10.98;;;;;;;10.24;100.00;98538.06;5067370;28;20029;-77
2024/01/08 02:49:21;;;;;;;25.63;11.13;;;;;;;10.30;100.00;98552.28;5067247;28;20067;-79
2024/01/08 02:51:47;;;;;;;22.77;11.30;;;;;;;10.39;100.00;98565.91;5067422;28;20055;-77
2024/01/08 02:54:12;;;;;;;23.58;12.00;;;;;;;10.50;100.00;98548.13;5067487;28;20028;-78
2024/01/08 02:56:37;;;;;;;21.85;12.40;;;;;;;10.23;100.00;98531.09;5067200;28;20111;-78
2024/01/08 02:59:06;;;;;;;22.42;13.07;;;;;;;10.36;100.00;98550.41;5049405;28;20062;-78
2024/01/08 03:01:33;;;;;;;23.50;12.75;;;;;;;10.51;100.00;98576.41;5053697;28;20037;-78
2024/01/08 03:03:58;;;;;;;18.63;11.70;;;;;;;10.44;100.00;98574.75;5053637;28;20028;-79
2024/01/08 03:06:24;;;;;;;22.27;11.73;;;;;;;10.42;100.00;98581.38;5071284;28;20099;-78
2024/01/08 03:08:49;;;;;;;19.98;11.75;;;;;;;10.25;100.00;98541.53;5071343;28;20114;-79
2024/01/08 03:11:14;;;;;;;18.75;11.05;;;;;;;10.44;100.00;98565.94;5053233;28;20035;-77
2024/01/08 03:13:40;;;;;;;20.77;10.43;;;;;;;10.37;100.00;98558.16;5053325;28;20125;-79
2024/01/08 03:16:05;;;;;;;18.17;12.43;;;;;;;9.90;100.00;98553.47;5053228;28;20051;-77
2024/01/08 03:18:31;;;;;;;19.45;11.98;;;;;;;10.15;100.00;98592.84;5071385;28;20121;-78
2024/01/08 03:20:56;;;;;;;22.73;12.50;;;;;;;9.77;100.00;98564.53;5071022;28;20047;-77
2024/01/08 03:23:22;;;;;;;21.42;12.40;;;;;;;9.82;100.00;98588.53;5071294;28;20025;-78
2024/01/08 03:25:47;;;;;;;21.13;11.70;;;;;;;10.00;100.00;98590.84;5070442;28;20043;-77
2024/01/08 03:28:13;;;;;;;20.92;12.23;;;;;;;9.69;100.00;98557.78;5070870;28;20024;-76
2024/01/08 03:30:38;;;;;;;17.63;12.07;;;;;;;9.82;100.00;98570.69;5070905;28;20028;-77
2024/01/08 03:33:04;;;;;;;21.00;12.52;;;;;;;10.01;100.00;98575.66;5070570;28;20390;-78
2024/01/08 03:35:29;;;;;;;23.10;13.27;;;;;;;10.11;100.00;98590.94;5052919;28;20103;-78
2024/01/08 03:37:55;;;;;;;29.63;23.25;;;;;;;10.06;100.00;98587.19;5070538;28;20027;-77
2024/01/08 03:40:20;;;;;;;25.98;19.48;;;;;;;10.33;100.00;98610.38;5070634;28;20024;-79
2024/01/08 03:42:46;;;;;;;25.52;17.30;;;;;;;10.16;100.00;98588.34;5070835;28;20496;-78
2024/01/08 03:45:11;;;;;;;22.95;15.80;;;;;;;9.99;100.00;98585.75;5070807;28;20107;-78
2024/01/08 03:47:39;;;;;;;26.52;19.83;;;;;;;10.06;100.00;98589.84;5052521;28;20032;-77
2024/01/08 03:50:06;;;;;;;30.83;20.20;;;;;;;10.25;100.00;98602.81;5070563;28;20032;-78
2024/01/08 03:52:31;;;;;;;27.60;17.85;;;;;;;10.22;100.00;98576.69;5070664;28;20036;-79
2024/01/08 03:54:57;;;;;;;30.27;18.77;;;;;;;10.42;100.00;98592.88;5070419;28;20672;-78
2024/01/08 03:57:23;;;;;;;24.48;15.23;;;;;;;10.20;100.00;98610.75;5070177;28;20046;-79
2024/01/08 03:59:48;;;;;;;25.05;14.40;;;;;;;10.24;100.00;98601.22;5070242;28;20501;-77
2024/01/08 04:02:14;;;;;;;22.33;14.68;;;;;;;10.35;100.00;98613.59;5070301;28;20036;-79
2024/01/08 04:04:41;;;;;;;24.30;14.32;;;;;;;10.19;100.00;98603.81;5052387;28;20039;-80
2024/01/08 04:07:06;;;;;;;22.95;13.38;;;;;;;10.20;100.00;98602.78;5070102;28;20454;-78
2024/01/08 04:25:17;;;;;;;23.30;13.98;;;;;;;9.03;100.00;98640.19;5055300;22;1329203;-77
2024/01/08 04:27:43;;;;;;;20.42;13.38;;;;;;;9.26;100.00;98620.59;5060806;28;20438;-77
2024/01/08 04:30:09;;;;;;;21.27;13.57;;;;;;;9.65;100.00;98642.66;5076677;28;20086;-77
2024/01/08 04:32:35;;;;;;;19.92;14.05;;;;;;;9.63;100.00;98620.00;5074689;28;20024;-78
2024/01/08 04:35:00;;;;;;;20.65;13.85;;;;;;;9.82;100.00;98636.44;5076079;28;20021;-77
2024/01/08 04:37:26;;;;;;;22.42;13.18;;;;;;;9.94;100.00;98641.66;5077034;28;20031;-77
2024/01/08 04:39:52;;;;;;;22.60;13.48;;;;;;;9.89;100.00;98642.41;5085360;28;20028;-77
2024/01/08 04:42:18;;;;;;;21.95;13.70;;;;;;;9.95;100.00;98657.38;5084713;28;20566;-77
2024/01/08 04:44:43;;;;;;;22.23;14.02;;;;;;;10.05;100.00;98656.66;5067556;28;20535;-78
2024/01/08 04:47:09;;;;;;;23.30;13.40;;;;;;;10.10;100.00;98653.28;5072728;28;20473;-76
2024/01/08 04:49:34;;;;;;;21.23;13.68;;;;;;;10.12;100.00;98662.63;5047708;28;20029;-78
2024/01/08 04:52:00;;;;;;;20.38;13.35;;;;;;;10.21;100.00;98681.63;5065424;28;20111;-79
2024/01/08 04:54:25;;;;;;;19.70;12.55;;;;;;;9.95;100.00;98694.66;5065332;28;20059;-78
2024/01/08 04:56:51;;;;;;;21.00;12.65;;;;;;;9.83;100.00;98678.00;5069398;28;20105;-79
2024/01/08 04:59:19;;;;;;;26.33;14.10;;;;;;;9.85;100.00;98705.19;5065220;28;20520;-78
2024/01/08 05:01:45;;;;;;;21.35;13.45;;;;;;;9.84;100.00;98703.56;5064944;28;20029;-78
2024/01/08 05:04:10;;;;;;;22.45;14.77;;;;;;;9.63;100.00;98690.00;5065792;28;20082;-78
2024/01/08 05:06:35;;;;;;;76.95;50.15;;;;;;;9.75;100.00;98691.75;5052710;28;20040;-77
2024/01/08 05:09:02;;;;;;;24.27;14.88;;;;;;;9.39;100.00;98686.75;5047326;28;20108;-77
2024/01/08 05:11:28;;;;;;;17.65;12.43;;;;;;;9.57;100.00;98709.63;5065183;28;20055;-77
2024/01/08 05:13:53;;;;;;;19.10;12.75;;;;;;;9.43;100.00;98695.84;5065236;28;20033;-78
2024/01/08 05:16:18;;;;;;;16.42;12.45;;;;;;;9.65;100.00;98709.19;5053991;28;20060;-78
2024/01/08 05:18:44;;;;;;;21.70;14.70;;;;;;;9.71;100.00;98717.25;5065019;28;20477;-76
2024/01/08 05:21:13;;;;;;;23.45;14.60;;;;;;;9.83;100.00;98726.72;5064626;28;20075;-77
2024/01/08 05:23:39;;;;;;;23.10;16.42;;;;;;;9.77;100.00;98729.59;5064370;28;20055;-76
2024/01/08 05:26:04;;;;;;;21.83;15.32;;;;;;;9.80;100.00;98731.75;5070191;28;20048;-76
2024/01/08 05:28:30;;;;;;;24.38;14.80;;;;;;;9.81;100.00;98738.69;5084862;28;20047;-76
2024/01/08 05:30:56;;;;;;;26.45;15.65;;;;;;;9.90;100.00;98733.75;5073024;28;20764;-77
2024/01/08 05:33:22;;;;;;;80.70;53.03;;;;;;;9.80;100.00;98742.38;5054911;28;20102;-77
2024/01/08 05:35:47;;;;;;;56.08;38.30;;;;;;;9.80;100.00;98751.19;5066336;28;20473;-77
2024/01/08 05:38:13;;;;;;;33.70;20.65;;;;;;;9.83;100.00;98749.91;5062910;28;20535;-76
2024/01/08 05:40:39;;;;;;;29.73;18.80;;;;;;;9.69;100.00;98730.81;5059590;28;20020;-77
2024/01/08 05:43:04;;;;;;;26.08;18.38;;;;;;;9.75;100.00;98747.66;5061671;28;20025;-76
2024/01/08 05:45:32;;;;;;;31.48;21.10;;;;;;;9.82;100.00;98757.06;5062060;28;20055;-77
2024/01/08 05:47:58;;;;;;;;;;;;;;;9.92;100.00;98774.25;5062975;28;20028;-77
2024/01/08 05:50:27;;;;;;;34.03;22.55;;;;;;;9.91;100.00;98761.97;5061470;28;19908;-77
2024/01/08 05:52:54;;;;;;;32.53;21.20;;;;;;;9.90;100.00;98769.16;5063261;28;20431;-76
2024/01/08 05:55:23;;;;;;;37.85;22.98;;;;;;;9.64;100.00;98747.53;5059756;28;20556;-77
2024/01/08 05:57:49;;;;;;;37.03;24.33;;;;;;;9.90;100.00;98781.66;5045726;28;20032;-77
2024/01/08 06:00:15;;;;;;;32.25;22.05;;;;;;;10.02;100.00;98793.81;5063908;28;20059;-77
2024/01/08 06:02:41;;;;;;;33.42;22.15;;;;;;;10.02;100.00;98791.16;5059122;28;20041;-77
2024/01/08 06:05:07;;;;;;;36.13;25.95;;;;;;;9.77;100.00;98777.50;5050047;28;20032;-78
2024/01/08 06:07:33;;;;;;;35.55;23.95;;;;;;;9.85;100.00;98806.38;5053963;28;20436;-77
2024/01/08 06:10:02;;;;;;;39.75;25.52;;;;;;;9.60;100.00;98762.38;5050627;28;20079;-78
2024/01/08 06:12:27;;;;;;;38.15;25.55;;;;;;;9.80;100.00;98814.28;5051049;28;20029;-76
2024/01/08 06:14:55;;;;;;;35.58;24.50;;;;;;;9.80;100.00;98806.28;5050672;28;20114;-77
2024/01/08 06:17:21;;;;;;;41.08;26.33;;;;;;;9.82;100.00;98812.19;5065641;28;20043;-76
2024/01/08 06:19:46;;;;;;;35.17;25.48;;;;;;;9.67;100.00;98793.34;5050926;28;20112;-76
2024/01/08 06:22:12;;;;;;;34.78;24.65;;;;;;;9.86;100.00;98807.97;5050815;28;20035;-76
2024/01/08 06:24:37;;;;;;;36.97;25.35;;;;;;;9.67;100.00;98822.63;5050397;28;20053;-77
2024/01/08 06:27:03;;;;;;;43.28;26.83;;;;;;;9.83;100.00;98824.44;5062723;28;20033;-77
2024/01/08 06:29:28;;;;;;;48.95;30.35;;;;;;;9.50;100.00;98836.75;5037298;28;20029;-77
2024/01/08 06:31:54;;;;;;;47.10;31.58;;;;;;;9.61;100.00;98827.06;5050238;28;20481;-77
2024/01/08 06:34:19;;;;;;;48.05;32.83;;;;;;;9.23;100.00;98793.97;5032205;28;20056;-78
2024/01/08 06:36:44;;;;;;;44.47;30.42;;;;;;;9.42;100.00;98815.84;5059553;28;20024;-77
2024/01/08 06:39:10;;;;;;;40.78;27.58;;;;;;;9.29;100.00;98816.16;5061018;28;20036;-76
2024/01/08 06:41:36;;;;;;;41.65;27.52;;;;;;;9.64;100.00;98826.56;5060222;28;20119;-77
2024/01/08 06:44:02;;;;;;;34.72;23.65;;;;;;;9.47;100.00;98804.47;5069624;28;20482;-75
2024/01/08 06:46:28;;;;;;;38.92;31.13;;;;;;;9.87;100.00;98854.88;5069056;28;20029;-77
2024/01/08 06:48:53;;;;;;;28.48;17.63;;;;;;;9.56;100.00;98849.06;5062571;28;20035;-76
2024/01/08 06:51:19;;;;;;;34.17;20.15;;;;;;;9.80;100.00;98836.38;5050063;28;20021;-76
2024/01/08 06:53:45;;;;;;;29.33;19.00;;;;;;;9.86;100.00;98866.56;5031986;28;20087;-77
2024/01/08 06:56:11;;;;;;;28.23;17.27;;;;;;;9.78;100.00;98859.78;5054107;28;20400;-76
2024/01/08 06:58:37;;;;;;;28.63;18.45;;;;;;;9.95;100.00;98869.59;5066913;28;20025;-76
2024/01/08 07:01:02;;;;;;;27.13;18.13;;;;;;;9.71;100.00;98890.28;5050095;28;20029;-76
2024/01/08 07:03:28;;;;;;;19.08;11.57;;;;;;;9.42;100.00;98869.06;5049075;28;20033;-76
2024/01/08 07:05:53;;;;;;;13.32;7.30;;;;;;;9.67;100.00;98889.16;5051028;28;20025;-76
2024/01/08 07:08:18;;;;;;;8.60;5.05;;;;;;;9.44;100.00;98881.06;5051617;28;20116;-77
2024/01/08 07:10:44;;;;;;;8.93;4.53;;;;;;;9.44;100.00;98886.41;5050707;28;20079;-76
2024/01/08 07:13:09;;;;;;;8.07;4.45;;;;;;;9.40;100.00;98897.78;5049569;28;20033;-77
2024/01/08 07:15:43;;;;;;;7.75;3.90;;;;;;;9.73;100.00;98909.50;5062764;28;20033;-75
2024/01/08 07:18:09;;;;;;;5.95;2.90;;;;;;;9.70;100.00;98899.31;5069266;28;20070;-76
2024/01/08 07:20:36;;;;;;;4.82;2.50;;;;;;;9.84;100.00;98913.91;5052487;28;20112;-77
2024/01/08 07:23:02;;;;;;;8.82;3.75;;;;;;;9.72;100.00;98910.53;5049389;28;20061;-76
2024/01/08 07:25:27;;;;;;;6.90;3.30;;;;;;;9.57;100.00;98917.22;5048871;28;20513;-76
2024/01/08 07:27:53;;;;;;;5.35;2.92;;;;;;;9.78;100.00;98934.31;5066930;28;20025;-76
2024/01/08 07:30:20;;;;;;;5.53;2.60;;;;;;;9.84;100.00;98928.03;5057071;28;20484;-76
2024/01/08 07:32:47;;;;;;;4.85;2.30;;;;;;;9.83;100.00;98936.28;5048425;28;20438;-76
2024/01/08 07:35:13;;;;;;;6.68;2.85;;;;;;;9.56;100.00;98934.25;5047624;28;20041;-77
2024/01/08 07:37:39;;;;;;;8.02;3.22;;;;;;;9.76;100.00;98952.41;5062311;28;20037;-76
2024/01/08 07:40:05;;;;;;;6.63;2.78;;;;;;;9.82;100.00;98947.97;5040874;28;20488;-77
2024/01/08 09:13:05;;;;;;;14.23;10.05;;;;;;;8.60;100.00;99077.47;5069450;22;1384485;-76
2024/01/08 09:15:30;;;;;;;14.38;9.50;;;;;;;9.03;100.00;99071.00;5104488;28;20040;-76
2024/01/08 09:17:56;;;;;;;17.65;11.32;;;;;;;9.40;100.00;99081.38;5105895;28;20111;-77
2024/01/08 09:20:22;;;;;;;16.10;10.63;;;;;;;9.57;100.00;99092.88;5106383;28;20487;-77
2024/01/08 09:22:48;;;;;;;14.15;10.32;;;;;;;9.58;100.00;99105.16;5106435;28;20108;-76
2024/01/08 09:25:13;;;;;;;15.30;10.70;;;;;;;9.69;100.00;99095.53;5104285;28;20114;-78
2024/01/08 09:27:39;;;;;;;17.98;10.88;;;;;;;9.67;100.00;99086.97;5106100;28;20111;-76
2024/01/08 09:30:06;;;;;;;14.98;8.73;;;;;;;9.45;100.00;99079.59;5105823;28;20028;-76
2024/01/08 09:32:31;;;;;;;11.95;7.13;;;;;;;9.51;100.00;99109.00;5105892;28;20030;-77
2024/01/08 09:34:57;;;;;;;12.80;7.25;;;;;;;9.53;100.00;99112.22;5085885;28;20032;-76
2024/01/08 09:37:22;;;;;;;35.67;15.93;;;;;;;9.60;100.00;99113.72;5106801;28;20472;-76
2024/01/08 09:39:48;;;;;;;15.48;7.32;;;;;;;9.67;100.00;99102.13;5106392;28;20040;-76
2024/01/08 09:42:14;;;;;;;29.67;12.95;;;;;;;9.84;100.00;99122.44;5089031;28;20031;-76
2024/01/08 09:44:45;;;;;;;10.55;6.05;;;;;;;9.87;100.00;99129.16;5088738;28;20039;-77
2024/01/08 09:47:12;;;;;;;8.73;5.22;;;;;;;9.81;100.00;99120.25;5117539;28;20425;-77
2024/01/08 09:49:38;;;;;;;8.45;4.57;;;;;;;9.60;100.00;99115.56;5099233;28;20024;-77
2024/01/08 09:52:06;;;;;;;8.93;4.88;;;;;;;9.60;100.00;99121.72;5117286;28;20480;-77
2024/01/08 09:54:33;;;;;;;6.50;3.90;;;;;;;9.66;100.00;99101.31;5116663;28;20054;-77
2024/01/08 09:56:58;;;;;;;7.72;3.38;;;;;;;9.76;100.00;99133.44;5116439;28;20050;-75
2024/01/08 09:59:25;;;;;;;4.78;2.75;;;;;;;9.70;100.00;99128.25;5118077;28;20031;-76
2024/01/08 10:01:50;;;;;;;3.83;2.17;;;;;;;9.56;100.00;99112.56;5116809;28;20165;-76
2024/01/08 10:04:16;;;;;;;4.75;3.00;;;;;;;9.60;100.00;99108.41;5114530;28;20087;-76
2024/01/08 10:06:44;;;;;;;4.30;2.28;;;;;;;9.76;100.00;99129.97;5116906;28;20028;-77
2024/01/08 10:09:12;;;;;;;;;;;;;;;9.75;100.00;99144.34;5116881;28;20038;-77
2024/01/08 10:11:39;;;;;;;5.03;2.33;;;;;;;9.44;100.00;99098.50;5115269;28;19916;-77
2024/01/08 10:14:06;;;;;;;4.78;2.15;;;;;;;9.60;100.00;99124.38;5090779;28;20078;-76
2024/01/08 10:16:32;;;;;;;5.05;2.70;;;;;;;9.71;100.00;99136.03;5090894;28;20024;-76
2024/01/08 10:18:57;;;;;;;4.50;2.50;;;;;;;9.47;100.00;99113.97;5087719;28;20468;-76
2024/01/08 10:21:23;;;;;;;5.05;2.85;;;;;;;9.59;100.00;99138.72;5068741;28;20115;-77
2024/01/08 10:23:48;;;;;;;5.65;2.67;;;;;;;9.52;100.00;99135.38;5076372;28;20032;-77
2024/01/08 10:26:16;;;;;;;6.53;3.20;;;;;;;9.44;100.00;99130.44;5092375;28;20509;-77
2024/01/08 10:28:41;;;;;;;5.38;2.85;;;;;;;9.38;100.00;99126.03;5092030;28;20055;-78
2024/01/08 10:31:08;;;;;;;6.65;3.60;;;;;;;9.39;100.00;99122.31;5091816;28;20059;-76
2024/01/08 10:33:34;;;;;;;7.57;3.50;;;;;;;9.47;100.00;99143.25;5091796;28;20035;-77
2024/01/08 10:36:04;;;;;;;6.28;3.40;;;;;;;9.50;100.00;99128.66;5088201;28;20032;-77
2024/01/08 10:38:32;;;;;;;8.30;3.88;;;;;;;9.57;100.00;99134.66;5092083;28;20473;-77
2024/01/08 10:40:57;;;;;;;11.10;5.65;;;;;;;9.37;100.00;99125.22;5091555;28;20028;-77
2024/01/08 10:43:24;;;;;;;8.10;4.63;;;;;;;9.67;100.00;99158.03;5091184;28;20081;-77
2024/01/08 10:45:56;;;;;;;9.10;5.18;;;;;;;9.57;100.00;99151.44;5077811;28;20033;-77
2024/01/08 10:48:22;;;;;;;8.82;5.65;;;;;;;9.52;100.00;99151.34;5070777;28;20028;-77
2024/01/08 10:50:52;;;;;;;8.85;4.75;;;;;;;9.56;100.00;99160.50;5071090;28;20043;-76
2024/01/08 10:53:39;;;;;;;7.45;3.70;;;;;;;9.55;100.00;99147.41;5070979;28;20098;-76
2024/01/08 10:56:09;;;;;;;6.93;3.65;;;;;;;9.61;100.00;99146.47;5075090;28;20488;-76
2024/01/08 10:58:36;;;;;;;6.90;4.07;;;;;;;9.54;100.00;99172.38;5070798;28;20029;-77
2024/01/08 11:01:03;;;;;;;7.80;3.28;;;;;;;9.40;100.00;99151.38;5070673;28;20025;-77
2024/01/08 11:03:29;;;;;;;5.95;3.33;;;;;;;9.32;100.00;99149.06;5071055;28;20024;-77
2024/01/08 11:05:58;;;;;;;7.18;3.72;;;;;;;9.54;100.00;99172.38;5066644;28;20449;-77
2024/01/08 11:08:24;;;;;;;9.50;6.70;;;;;;;10.17;100.00;99174.19;5072361;28;20032;-78
2024/01/08 11:10:50;;;;;;;11.60;6.05;;;;;;;10.71;100.00;99179.19;5079240;28;20038;-77
2024/01/08 11:13:16;;;;;;;9.68;6.35;;;;;;;10.34;100.00;99187.59;5082233;28;20036;-77
2024/01/08 11:15:44;;;;;;;13.85;7.65;;;;;;;10.20;100.00;99180.91;5084640;28;20099;-77
2024/01/08 11:18:23;;;;;;;9.55;5.28;;;;;;;9.98;100.00;99183.41;5082399;28;20097;-76
2024/01/08 11:20:50;;;;;;;8.38;5.18;;;;;;;9.76;100.00;99175.25;5079579;28;20036;-78
2024/01/08 11:23:41;;;;;;;9.52;6.82;;;;;;;9.62;100.00;99180.84;5079076;28;20103;-77
2024/01/08 11:26:21;;;;;;;7.68;4.82;;;;;;;9.46;100.00;99170.91;5080952;28;20166;-78
2024/01/08 11:29:03;;;;;;;7.28;3.58;;;;;;;9.50;100.00;99172.06;5080470;28;20028;-77
2024/01/08 11:31:29;;;;;;;5.68;2.70;;;;;;;9.52;100.00;99185.94;5078832;28;20047;-77
2024/01/08 11:34:12;;;;;;;5.32;2.97;;;;;;;9.47;100.00;99193.81;5079704;28;20044;-77
2024/01/08 11:36:47;;;;;;;6.55;3.22;;;;;;;9.44;100.00;99167.69;5084637;28;20035;-77
2024/01/08 11:39:19;;;;;;;5.65;3.30;;;;;;;9.36;100.00;99182.16;5090549;28;20032;-77
2024/01/08 11:41:46;;;;;;;6.43;3.97;;;;;;;9.51;100.00;99199.50;5090286;28;20032;-77
2024/01/08 11:44:15;;;;;;;8.95;5.78;;;;;;;9.68;100.00;99200.38;5090338;28;20032;-77
2024/01/08 11:46:42;;;;;;;9.10;5.72;;;;;;;9.60;100.00;99188.25;5088352;28;20118;-77
2024/01/08 11:49:07;;;;;;;7.25;4.07;;;;;;;9.51;100.00;99179.00;5090044;28;20038;-77
2024/01/08 11:51:34;;;;;;;9.02;4.97;;;;;;;9.71;100.00;99209.78;5089795;28;20028;-77
2024/01/08 11:54:07;;;;;;;8.73;5.30;;;;;;;9.74;100.00;99203.97;5090033;28;20085;-77
2024/01/08 11:56:34;;;;;;;6.07;4.15;;;;;;;9.84;100.00;99204.97;5088128;28;20032;-78
2024/01/08 11:59:00;;;;;;;5.95;3.90;;;;;;;9.70;100.00;99187.63;5089481;28;20036;-77
2024/01/08 12:01:26;;;;;;;8.80;4.65;;;;;;;9.86;100.00;99213.53;5089596;28;20489;-77
2024/01/08 12:03:59;;;;;;;8.30;6.28;;;;;;;9.69;100.00;99190.56;5089922;28;20038;-76
2024/01/08 12:06:28;;;;;;;9.45;6.60;;;;;;;9.88;100.00;99215.97;5087444;28;20052;-77
2024/01/08 12:08:54;;;;;;;8.35;4.75;;;;;;;9.87;100.00;99219.69;5089617;28;20036;-77
2024/01/08 12:11:20;;;;;;;8.95;6.50;;;;;;;9.65;100.00;99222.97;5089310;28;20472;-77
2024/01/08 12:13:46;;;;;;;10.95;7.63;;;;;;;9.81;100.00;99231.28;5070995;28;20048;-77
2024/01/08 12:16:13;;;;;;;10.88;7.75;;;;;;;10.05;100.00;99229.34;5087954;28;20031;-77
2024/01/08 12:18:40;;;;;;;15.38;10.05;;;;;;;9.94;100.00;99231.00;5089114;28;20032;-76
2024/01/08 12:21:05;;;;;;;9.75;7.22;;;;;;;9.95;100.00;99221.16;5089258;28;20577;-76
2024/01/08 12:23:31;;;;;;;8.43;5.75;;;;;;;10.02;100.00;99232.50;5089279;28;20024;-78
2024/01/08 12:25:56;;;;;;;11.02;9.70;;;;;;;10.09;100.00;99238.50;5083837;28;20017;-78
2024/01/08 12:28:27;;;;;;;8.00;5.40;;;;;;;10.02;100.00;99235.16;5068999;28;20054;-77
2024/01/08 12:30:52;;;;;;;8.23;6.13;;;;;;;10.03;100.00;99229.63;5068554;28;20024;-77
2024/01/08 12:33:20;;;;;;;10.48;8.55;;;;;;;10.15;100.00;99242.09;5068578;28;20085;-77
2024/01/08 12:35:45;;;;;;;20.63;18.20;;;;;;;10.05;100.00;99232.84;5073650;28;20020;-77
2024/01/08 12:38:11;;;;;;;22.27;19.08;;;;;;;10.29;100.00;99259.41;5088762;28;20040;-77
2024/01/08 12:40:37;;;;;;;47.45;42.35;;;;;;;10.40;100.00;99261.28;5088940;28;20028;-77
2024/01/08 12:43:03;;;;;;;12.00;7.75;;;;;;;10.35;100.00;99263.84;5088724;28;20534;-78
2024/01/08 12:45:28;;;;;;;22.02;18.52;;;;;;;10.44;100.00;99262.44;5087036;28;20028;-77
2024/01/08 12:47:54;;;;;;;14.57;12.45;;;;;;;10.45;100.00;99269.34;5089128;28;20032;-78
2024/01/08 12:50:19;;;;;;;8.75;6.38;;;;;;;10.38;100.00;99257.22;5088739;28;20066;-77
2024/01/08 12:52:44;;;;;;;11.23;6.55;;;;;;;10.29;100.00;99271.94;5088924;28;20141;-77
2024/01/08 12:55:10;;;;;;;15.57;14.07;;;;;;;10.35;100.00;99261.16;5088617;28;20114;-78
2024/01/08 12:57:35;;;;;;;8.38;4.93;;;;;;;10.37;100.00;99279.59;5088401;28;20111;-76
2024/01/08 13:00:03;;;;;;;10.68;7.38;;;;;;;10.62;100.00;99290.75;5088577;28;20107;-77
2024/01/08 13:02:31;;;;;;;;;;;;;;;10.61;100.00;99286.47;5089110;28;20534;-76